Shirley, United Kingdom
Current Conditions -  °F | °C
As of 8:20 PM on Thursday 20 Nov 2014 (Local Time) from EGBB Reporting Station
Light Fog Light Fog  
Wind Chill:   Ceiling: Unl
Heat Index:   Visibility: 1.2mi
Dew Point:   Wind: 3mph
Humidity: 100%   Direction: NA
Pressure: 30.24"   Gusts: NA
Location:  52.41°N, 1.83°W
Report Text: EGBB 202020Z VRB03KT 2000 0400N R33/P1500 BCFG SCT006 04/04 Q1024
Loading
Personal Weather Stations






























Interactive Weather Map New forecast layout! Learn more

10-Day Weather Forecast

Advertisements
Track Severe Weather on mobile